Elk Grove, CA (95624)

7:30 AM PDT on August 20, 2014 (GMT -0700)
North-East Elk Grove | Change Station
CLOSE
Current Station
Personal Weather Station
Location: Elk Grove, CA
Elevation: 89 ft
Nearby Weather Stations

Elev 89 ft 38.44 °N, 121.29 °W | Updated 12 seconds ago

Mostly Cloudy
Mostly Cloudy
62.1 °F
Feels Like 62.1 °F
N
0.0
Wind Variable Wind from SSW
Gusts 0.0 mph

Today
High -- | Low -- °F
--% Chance of Precip.
Yesterday
High -- | Low -- °F
Precip. -- in
6:24 AM 7:52 PM
Waning Crescent, 21% visible
Pressure 29.85 in
Visibility 10.0 miles
Clouds Mostly Cloudy 1400 ft
Dew Point 58 °F
Humidity 87%
Rainfall 0.00 in
Snow Depth Not available.
UV 0 out of 12
Pollen 6.20 out of 12
Ozone Good
PM2.5 Good
Flu Activity Not available.
METAR KMHR 201345Z 14005KT 10SM BKN014 15/15 A2985

More Conditions Fewer Conditions

Pressure 29.85 in
Visibility 10.0 miles
Clouds Mostly Cloudy 1400 ft
Dew Point 58 °F
Humidity 87%
Rainfall 0.00 in
Snow Depth Not available.
UV 0 out of 12
Pollen 6.20 out of 12
Ozone Good
PM2.5 Good
Flu Activity Not available.
METAR KMHR 201345Z 14005KT 10SM BKN014 15/15 A2985

More Conditions Fewer Conditions

10-Day Weather Forecast

Almanac

Astronomy

Aug. 20, 2014 Rise Set
Actual Time 6:24 AM PDT 7:52 PM PDT
Civil Twilight 5:56 AM PDT 8:20 PM PDT
Nautical Twilight 5:22 AM PDT 8:53 PM PDT
Astronomical Twilight 4:47 AM PDT 9:28 PM PDT
Moon 2:09 AM PDT 4:40 PM PDT
Length of Visible Light 14h 23m
Length of Day
13h 28m
Tomorrow will be 2m 15s shorter.
Waning Crescent, 21% of the Moon is Illuminated
Today
Waning Crescent
Aug 25
New
Sep 2
First Quarter
Sep 8
Full
Sep 15
Last Quarter

Today's Extremes

State Highs State Lows

Community

WunderPhotos

Upload Photos

1,745,654 photos uploaded!

Nearby

Air Quality

  Air Quality AQ Index Pollutant
Yesterday Good
PM10
Yesterday Good
OZONE
Current Good
PM2.5
Current Good
OZONE
Wednesday Moderate
OZONE
Thursday Moderate
OZONE
Friday Good
OZONE
Saturday Good
OZONE
Sunday Moderate
OZONE

Snow Depth

Station Depth Elevation
Echo Peak 1 in 7800 ft
Forestdale Creek 0 in 8029 ft
Blue Lakes 0 in 8000 ft
Fallen Leaf 0 in 6300 ft
Hagan's Meadow 0 in 8000 ft

Earthquake Activity

City Distance Mag. Time & Date
Mariposa, California 101 miles 2.5 4:54 AM PDT
2014-08-14
Mariposa, California 102 miles 2.7 3:31 AM PDT
2014-08-14
The Geysers, California 82 miles 2.6 8:55 PM PDT
2014-08-13
Upper Lake, California 105 miles 2.9 3:32 PM PDT
2014-08-13
Minimum magnitude displayed is 2.5.

Coastal Water Temperatures

Place Temperature
San Francisco, CA 64.9 °F
Richmond, CA 66.9 °F
Port Chicago, CA 69.1 °F

Nearby Weather Stations